sensor_id;sensor_type;location;lat;lon;timestamp;pressure;altitude;pressure_sealevel;temperature;humidity
44140;BME280;29803;51.048;4.686;2023-11-22T00:00:32;102699.75;;;6.37;100.00
44140;BME280;29803;51.048;4.686;2023-11-22T00:03:03;102692.72;;;6.36;100.00
44140;BME280;29803;51.048;4.686;2023-11-22T00:05:34;102685.59;;;6.37;100.00
44140;BME280;29803;51.048;4.686;2023-11-22T00:08:04;102683.88;;;6.36;100.00
44140;BME280;29803;51.048;4.686;2023-11-22T00:10:35;102674.06;;;6.36;100.00
44140;BME280;29803;51.048;4.686;2023-11-22T00:13:05;102675.31;;;6.31;100.00
44140;BME280;29803;51.048;4.686;2023-11-22T00:15:36;102667.69;;;6.25;100.00
44140;BME280;29803;51.048;4.686;2023-11-22T00:18:06;102682.25;;;6.19;100.00
44140;BME280;29803;51.048;4.686;2023-11-22T00:20:37;102683.56;;;6.12;100.00
44140;BME280;29803;51.048;4.686;2023-11-22T00:23:07;102686.78;;;6.03;100.00
44140;BME280;29803;51.048;4.686;2023-11-22T00:25:38;102684.69;;;5.93;100.00
44140;BME280;29803;51.048;4.686;2023-11-22T00:28:08;102696.28;;;5.92;100.00
44140;BME280;29803;51.048;4.686;2023-11-22T00:30:39;102693.03;;;6.02;100.00
44140;BME280;29803;51.048;4.686;2023-11-22T00:33:09;102692.78;;;6.06;100.00
44140;BME280;29803;51.048;4.686;2023-11-22T00:35:40;102693.47;;;6.10;100.00
44140;BME280;29803;51.048;4.686;2023-11-22T00:38:10;102697.16;;;6.07;100.00
44140;BME280;29803;51.048;4.686;2023-11-22T00:40:42;102696.50;;;6.04;100.00
44140;BME280;29803;51.048;4.686;2023-11-22T00:43:12;102698.19;;;6.05;100.00
44140;BME280;29803;51.048;4.686;2023-11-22T00:45:43;102703.69;;;6.02;100.00
44140;BME280;29803;51.048;4.686;2023-11-22T00:48:13;102697.78;;;5.96;100.00
44140;BME280;29803;51.048;4.686;2023-11-22T00:50:44;102704.94;;;5.96;100.00
44140;BME280;29803;51.048;4.686;2023-11-22T00:53:14;102708.44;;;5.96;100.00
44140;BME280;29803;51.048;4.686;2023-11-22T00:55:45;102713.72;;;5.98;100.00
44140;BME280;29803;51.048;4.686;2023-11-22T00:58:15;102707.69;;;5.94;100.00
44140;BME280;29803;51.048;4.686;2023-11-22T01:00:46;102710.69;;;5.88;100.00
44140;BME280;29803;51.048;4.686;2023-11-22T01:03:16;102713.78;;;5.81;100.00
44140;BME280;29803;51.048;4.686;2023-11-22T01:05:47;102708.72;;;5.76;100.00
44140;BME280;29803;51.048;4.686;2023-11-22T01:08:17;102708.25;;;5.69;100.00
44140;BME280;29803;51.048;4.686;2023-11-22T01:10:48;102701.84;;;5.58;100.00
44140;BME280;29803;51.048;4.686;2023-11-22T01:13:19;102702.16;;;5.52;100.00
44140;BME280;29803;51.048;4.686;2023-11-22T01:15:49;102712.16;;;5.48;100.00
44140;BME280;29803;51.048;4.686;2023-11-22T01:18:20;102712.81;;;5.52;100.00
44140;BME280;29803;51.048;4.686;2023-11-22T01:20:50;102729.97;;;5.62;100.00
44140;BME280;29803;51.048;4.686;2023-11-22T01:23:21;102733.22;;;5.67;100.00
44140;BME280;29803;51.048;4.686;2023-11-22T01:25:51;102749.56;;;5.61;100.00
44140;BME280;29803;51.048;4.686;2023-11-22T01:28:22;102741.94;;;5.55;100.00
44140;BME280;29803;51.048;4.686;2023-11-22T01:30:53;102750.28;;;5.49;100.00
44140;BME280;29803;51.048;4.686;2023-11-22T01:33:24;102759.53;;;5.41;100.00
44140;BME280;29803;51.048;4.686;2023-11-22T01:35:55;102759.88;;;5.35;100.00
44140;BME280;29803;51.048;4.686;2023-11-22T01:38:26;102771.72;;;5.30;100.00
44140;BME280;29803;51.048;4.686;2023-11-22T01:40:56;102778.09;;;5.27;100.00
44140;BME280;29803;51.048;4.686;2023-11-22T01:43:27;102776.53;;;5.23;100.00
44140;BME280;29803;51.048;4.686;2023-11-22T01:45:57;102783.75;;;5.21;100.00
44140;BME280;29803;51.048;4.686;2023-11-22T01:48:28;102788.38;;;5.17;100.00
44140;BME280;29803;51.048;4.686;2023-11-22T01:50:59;102792.91;;;5.15;100.00
44140;BME280;29803;51.048;4.686;2023-11-22T01:53:30;102801.75;;;5.16;100.00
44140;BME280;29803;51.048;4.686;2023-11-22T01:56:02;102800.13;;;5.13;100.00
44140;BME280;29803;51.048;4.686;2023-11-22T01:58:32;102801.16;;;5.11;100.00
44140;BME280;29803;51.048;4.686;2023-11-22T02:01:04;102798.50;;;5.11;100.00
44140;BME280;29803;51.048;4.686;2023-11-22T02:03:34;102795.16;;;5.07;100.00
44140;BME280;29803;51.048;4.686;2023-11-22T02:06:06;102790.94;;;5.03;100.00
44140;BME280;29803;51.048;4.686;2023-11-22T02:08:36;102789.22;;;5.02;100.00
44140;BME280;29803;51.048;4.686;2023-11-22T02:11:08;102789.38;;;4.99;100.00
44140;BME280;29803;51.048;4.686;2023-11-22T02:13:38;102786.09;;;4.94;100.00
44140;BME280;29803;51.048;4.686;2023-11-22T02:16:09;102788.16;;;4.89;100.00
44140;BME280;29803;51.048;4.686;2023-11-22T02:18:48;102784.78;;;4.85;100.00
44140;BME280;29803;51.048;4.686;2023-11-22T02:21:19;102798.28;;;4.82;100.00
44140;BME280;29803;51.048;4.686;2023-11-22T02:23:51;102790.53;;;4.78;100.00
44140;BME280;29803;51.048;4.686;2023-11-22T02:26:34;102791.63;;;4.74;100.00
44140;BME280;29803;51.048;4.686;2023-11-22T02:29:05;102795.28;;;4.71;100.00
44140;BME280;29803;51.048;4.686;2023-11-22T02:31:35;102782.25;;;4.66;100.00
44140;BME280;29803;51.048;4.686;2023-11-22T02:34:07;102786.69;;;4.66;100.00
44140;BME280;29803;51.048;4.686;2023-11-22T02:36:37;102793.91;;;4.64;100.00
44140;BME280;29803;51.048;4.686;2023-11-22T02:39:07;102792.19;;;4.63;100.00
44140;BME280;29803;51.048;4.686;2023-11-22T02:41:38;102794.91;;;4.61;100.00
44140;BME280;29803;51.048;4.686;2023-11-22T02:44:08;102791.63;;;4.56;100.00
44140;BME280;29803;51.048;4.686;2023-11-22T02:46:39;102805.16;;;4.52;100.00
44140;BME280;29803;51.048;4.686;2023-11-22T02:49:09;102817.84;;;4.47;100.00
44140;BME280;29803;51.048;4.686;2023-11-22T02:51:40;102816.28;;;4.43;100.00
44140;BME280;29803;51.048;4.686;2023-11-22T02:54:11;102827.16;;;4.38;100.00
44140;BME280;29803;51.048;4.686;2023-11-22T02:56:41;102814.00;;;4.35;100.00
44140;BME280;29803;51.048;4.686;2023-11-22T02:59:12;102807.75;;;4.36;100.00
44140;BME280;29803;51.048;4.686;2023-11-22T03:01:43;102817.16;;;4.43;100.00
44140;BME280;29803;51.048;4.686;2023-11-22T03:04:16;102814.25;;;4.48;100.00
44140;BME280;29803;51.048;4.686;2023-11-22T03:06:46;102814.56;;;4.41;100.00
44140;BME280;29803;51.048;4.686;2023-11-22T03:09:21;102800.81;;;4.33;100.00
44140;BME280;29803;51.048;4.686;2023-11-22T03:11:54;102804.78;;;4.25;100.00
44140;BME280;29803;51.048;4.686;2023-11-22T03:14:25;102795.41;;;4.18;100.00
44140;BME280;29803;51.048;4.686;2023-11-22T03:16:56;102803.63;;;4.13;100.00
44140;BME280;29803;51.048;4.686;2023-11-22T03:19:27;102812.34;;;4.15;100.00
44140;BME280;29803;51.048;4.686;2023-11-22T03:21:57;102808.06;;;4.12;100.00
44140;BME280;29803;51.048;4.686;2023-11-22T03:24:29;102797.59;;;4.09;100.00
44140;BME280;29803;51.048;4.686;2023-11-22T03:27:00;102803.53;;;4.14;100.00
44140;BME280;29803;51.048;4.686;2023-11-22T03:29:31;102809.06;;;4.10;100.00
44140;BME280;29803;51.048;4.686;2023-11-22T03:32:03;102804.16;;;4.02;100.00
44140;BME280;29803;51.048;4.686;2023-11-22T03:34:34;102801.78;;;3.96;100.00
44140;BME280;29803;51.048;4.686;2023-11-22T03:37:04;102812.06;;;3.85;100.00
44140;BME280;29803;51.048;4.686;2023-11-22T03:39:35;102812.59;;;3.74;100.00
44140;BME280;29803;51.048;4.686;2023-11-22T03:42:06;102817.34;;;3.68;100.00
44140;BME280;29803;51.048;4.686;2023-11-22T03:44:36;102821.22;;;3.60;100.00
44140;BME280;29803;51.048;4.686;2023-11-22T03:47:07;102817.78;;;3.58;100.00
44140;BME280;29803;51.048;4.686;2023-11-22T03:49:38;102826.81;;;3.73;100.00
44140;BME280;29803;51.048;4.686;2023-11-22T03:52:10;102833.81;;;3.93;100.00
44140;BME280;29803;51.048;4.686;2023-11-22T03:54:41;102830.41;;;4.08;100.00
44140;BME280;29803;51.048;4.686;2023-11-22T03:57:11;102834.88;;;4.25;100.00
44140;BME280;29803;51.048;4.686;2023-11-22T03:59:42;102839.72;;;4.34;100.00
44140;BME280;29803;51.048;4.686;2023-11-22T04:02:13;102843.78;;;4.41;100.00
44140;BME280;29803;51.048;4.686;2023-11-22T04:04:43;102853.19;;;4.49;100.00
44140;BME280;29803;51.048;4.686;2023-11-22T04:07:14;102863.34;;;4.40;100.00
44140;BME280;29803;51.048;4.686;2023-11-22T04:09:45;102867.25;;;4.33;100.00
44140;BME280;29803;51.048;4.686;2023-11-22T04:12:15;102861.53;;;4.24;100.00
44140;BME280;29803;51.048;4.686;2023-11-22T04:14:46;102872.50;;;4.16;100.00
44140;BME280;29803;51.048;4.686;2023-11-22T04:17:17;102873.00;;;4.07;100.00
44140;BME280;29803;51.048;4.686;2023-11-22T04:19:47;102867.03;;;4.02;100.00
44140;BME280;29803;51.048;4.686;2023-11-22T04:22:18;102869.53;;;4.05;100.00
44140;BME280;29803;51.048;4.686;2023-11-22T04:24:48;102878.34;;;4.05;100.00
44140;BME280;29803;51.048;4.686;2023-11-22T04:27:18;102879.22;;;4.06;100.00
44140;BME280;29803;51.048;4.686;2023-11-22T04:29:49;102880.16;;;4.05;100.00
44140;BME280;29803;51.048;4.686;2023-11-22T04:32:19;102888.13;;;4.05;100.00
44140;BME280;29803;51.048;4.686;2023-11-22T04:34:52;102896.72;;;4.10;100.00
44140;BME280;29803;51.048;4.686;2023-11-22T04:37:22;102899.56;;;4.07;100.00
44140;BME280;29803;51.048;4.686;2023-11-22T04:39:56;102899.69;;;4.04;100.00
44140;BME280;29803;51.048;4.686;2023-11-22T04:42:27;102898.13;;;4.00;100.00
44140;BME280;29803;51.048;4.686;2023-11-22T04:44:57;102904.38;;;3.99;100.00
44140;BME280;29803;51.048;4.686;2023-11-22T04:47:28;102907.03;;;3.99;100.00
44140;BME280;29803;51.048;4.686;2023-11-22T04:49:58;102919.34;;;4.00;100.00
44140;BME280;29803;51.048;4.686;2023-11-22T04:52:29;102917.66;;;3.99;100.00
44140;BME280;29803;51.048;4.686;2023-11-22T04:54:59;102923.91;;;3.98;100.00
44140;BME280;29803;51.048;4.686;2023-11-22T04:57:29;102926.56;;;3.98;100.00
44140;BME280;29803;51.048;4.686;2023-11-22T05:00:00;102925.53;;;4.00;100.00
44140;BME280;29803;51.048;4.686;2023-11-22T05:02:30;102928.13;;;4.02;100.00
44140;BME280;29803;51.048;4.686;2023-11-22T05:05:01;102930.41;;;4.09;100.00
44140;BME280;29803;51.048;4.686;2023-11-22T05:07:32;102922.22;;;4.14;100.00
44140;BME280;29803;51.048;4.686;2023-11-22T05:10:03;102935.19;;;4.20;100.00
44140;BME280;29803;51.048;4.686;2023-11-22T05:12:34;102936.66;;;4.27;100.00
44140;BME280;29803;51.048;4.686;2023-11-22T05:15:06;102927.44;;;4.34;100.00
44140;BME280;29803;51.048;4.686;2023-11-22T05:17:37;102930.72;;;4.39;100.00
44140;BME280;29803;51.048;4.686;2023-11-22T05:20:08;102935.66;;;4.47;100.00
44140;BME280;29803;51.048;4.686;2023-11-22T05:22:39;102935.41;;;4.52;100.00
44140;BME280;29803;51.048;4.686;2023-11-22T05:25:10;102933.41;;;4.57;100.00
44140;BME280;29803;51.048;4.686;2023-11-22T05:27:41;102934.06;;;4.62;100.00
44140;BME280;29803;51.048;4.686;2023-11-22T05:30:11;102935.44;;;4.69;100.00
44140;BME280;29803;51.048;4.686;2023-11-22T05:32:42;102938.75;;;4.74;100.00
44140;BME280;29803;51.048;4.686;2023-11-22T05:35:12;102924.34;;;4.78;100.00
44140;BME280;29803;51.048;4.686;2023-11-22T05:37:43;102931.16;;;4.84;100.00
44140;BME280;29803;51.048;4.686;2023-11-22T05:40:13;102934.59;;;4.86;100.00
44140;BME280;29803;51.048;4.686;2023-11-22T05:42:45;102933.50;;;4.90;100.00
44140;BME280;29803;51.048;4.686;2023-11-22T05:45:16;102930.06;;;4.88;100.00
44140;BME280;29803;51.048;4.686;2023-11-22T05:47:46;102929.03;;;4.90;100.00
44140;BME280;29803;51.048;4.686;2023-11-22T05:50:17;102930.50;;;4.96;100.00
44140;BME280;29803;51.048;4.686;2023-11-22T05:52:48;102939.34;;;4.97;100.00
44140;BME280;29803;51.048;4.686;2023-11-22T05:55:18;102936.47;;;5.01;100.00
44140;BME280;29803;51.048;4.686;2023-11-22T05:57:48;102932.78;;;5.04;100.00
44140;BME280;29803;51.048;4.686;2023-11-22T06:00:19;102923.72;;;5.08;100.00
44140;BME280;29803;51.048;4.686;2023-11-22T06:02:51;102924.56;;;5.08;100.00
44140;BME280;29803;51.048;4.686;2023-11-22T06:05:22;102917.44;;;5.09;100.00
44140;BME280;29803;51.048;4.686;2023-11-22T06:07:52;102927.16;;;5.10;100.00
44140;BME280;29803;51.048;4.686;2023-11-22T06:10:23;102936.84;;;5.11;100.00
44140;BME280;29803;51.048;4.686;2023-11-22T06:12:55;102950.22;;;5.09;100.00
44140;BME280;29803;51.048;4.686;2023-11-22T06:15:25;102956.19;;;5.14;100.00
44140;BME280;29803;51.048;4.686;2023-11-22T06:17:55;102964.16;;;5.14;100.00
44140;BME280;29803;51.048;4.686;2023-11-22T06:20:26;102963.31;;;5.14;100.00
44140;BME280;29803;51.048;4.686;2023-11-22T06:22:57;102976.38;;;5.18;100.00
44140;BME280;29803;51.048;4.686;2023-11-22T06:25:27;102981.69;;;5.18;100.00
44140;BME280;29803;51.048;4.686;2023-11-22T06:27:58;102974.56;;;5.19;100.00
44140;BME280;29803;51.048;4.686;2023-11-22T06:30:29;102963.78;;;5.22;100.00
44140;BME280;29803;51.048;4.686;2023-11-22T06:33:00;102965.50;;;5.23;100.00
44140;BME280;29803;51.048;4.686;2023-11-22T06:35:31;102970.72;;;5.25;100.00
44140;BME280;29803;51.048;4.686;2023-11-22T06:38:01;102975.97;;;5.26;100.00
44140;BME280;29803;51.048;4.686;2023-11-22T06:40:32;102978.38;;;5.31;100.00
44140;BME280;29803;51.048;4.686;2023-11-22T06:43:02;102982.00;;;5.30;100.00
44140;BME280;29803;51.048;4.686;2023-11-22T06:45:38;102988.03;;;5.33;100.00
44140;BME280;29803;51.048;4.686;2023-11-22T06:48:09;102995.81;;;5.36;100.00
44140;BME280;29803;51.048;4.686;2023-11-22T06:50:39;102991.31;;;5.38;100.00
44140;BME280;29803;51.048;4.686;2023-11-22T06:53:10;102993.88;;;5.40;100.00
44140;BME280;29803;51.048;4.686;2023-11-22T06:55:41;102994.72;;;5.40;100.00
44140;BME280;29803;51.048;4.686;2023-11-22T06:58:13;102992.78;;;5.44;100.00
44140;BME280;29803;51.048;4.686;2023-11-22T07:00:44;102983.06;;;5.43;100.00
44140;BME280;29803;51.048;4.686;2023-11-22T07:03:14;102976.81;;;5.44;100.00
44140;BME280;29803;51.048;4.686;2023-11-22T07:05:45;102974.06;;;5.45;100.00
44140;BME280;29803;51.048;4.686;2023-11-22T07:08:16;102982.28;;;5.41;100.00
44140;BME280;29803;51.048;4.686;2023-11-22T07:10:47;102973.84;;;5.33;100.00
44140;BME280;29803;51.048;4.686;2023-11-22T07:13:18;102969.72;;;5.27;100.00
44140;BME280;29803;51.048;4.686;2023-11-22T07:15:48;102962.06;;;5.37;100.00
44140;BME280;29803;51.048;4.686;2023-11-22T07:18:20;102961.84;;;5.41;100.00
44140;BME280;29803;51.048;4.686;2023-11-22T07:20:54;102956.28;;;5.46;100.00
44140;BME280;29803;51.048;4.686;2023-11-22T07:23:25;102957.94;;;5.49;100.00
44140;BME280;29803;51.048;4.686;2023-11-22T07:25:59;102964.81;;;5.53;100.00
44140;BME280;29803;51.048;4.686;2023-11-22T07:28:32;102968.34;;;5.53;100.00
44140;BME280;29803;51.048;4.686;2023-11-22T07:31:09;102972.63;;;5.56;100.00
44140;BME280;29803;51.048;4.686;2023-11-22T07:33:41;102974.09;;;5.61;100.00
44140;BME280;29803;51.048;4.686;2023-11-22T07:36:12;102982.69;;;5.66;100.00
44140;BME280;29803;51.048;4.686;2023-11-22T07:38:50;102995.72;;;5.72;100.00
44140;BME280;29803;51.048;4.686;2023-11-22T07:41:23;102996.56;;;5.73;100.00
44140;BME280;29803;51.048;4.686;2023-11-22T07:43:54;103006.28;;;5.74;100.00
44140;BME280;29803;51.048;4.686;2023-11-22T07:46:24;103017.44;;;5.81;100.00
44140;BME280;29803;51.048;4.686;2023-11-22T07:48:58;103011.97;;;5.84;100.00
44140;BME280;29803;51.048;4.686;2023-11-22T07:51:30;103008.25;;;5.86;100.00
44140;BME280;29803;51.048;4.686;2023-11-22T07:54:01;102999.34;;;5.87;100.00
44140;BME280;29803;51.048;4.686;2023-11-22T07:56:31;102997.53;;;5.88;100.00
44140;BME280;29803;51.048;4.686;2023-11-22T07:59:02;102998.41;;;5.88;100.00
44140;BME280;29803;51.048;4.686;2023-11-22T08:01:35;103000.13;;;5.89;100.00
44140;BME280;29803;51.048;4.686;2023-11-22T08:04:05;103003.56;;;5.91;100.00
44140;BME280;29803;51.048;4.686;2023-11-22T08:06:36;103005.31;;;5.92;100.00
44140;BME280;29803;51.048;4.686;2023-11-22T08:09:06;103014.94;;;5.95;100.00
44140;BME280;29803;51.048;4.686;2023-11-22T08:11:39;103013.91;;;5.97;100.00
44140;BME280;29803;51.048;4.686;2023-11-22T08:14:09;103033.19;;;6.03;100.00
44140;BME280;29803;51.048;4.686;2023-11-22T08:16:39;103033.09;;;6.04;100.00
44140;BME280;29803;51.048;4.686;2023-11-22T08:19:12;103051.56;;;6.07;100.00
44140;BME280;29803;51.048;4.686;2023-11-22T08:21:43;103045.91;;;6.13;100.00
44140;BME280;29803;51.048;4.686;2023-11-22T08:24:14;103052.00;;;6.15;100.00
44140;BME280;29803;51.048;4.686;2023-11-22T08:26:44;103061.66;;;6.18;100.00
44140;BME280;29803;51.048;4.686;2023-11-22T08:29:15;103065.50;;;6.12;100.00
44140;BME280;29803;51.048;4.686;2023-11-22T08:31:46;103065.69;;;6.09;100.00
44140;BME280;29803;51.048;4.686;2023-11-22T08:34:18;103059.03;;;6.01;100.00
44140;BME280;29803;51.048;4.686;2023-11-22T08:36:48;103047.53;;;6.00;100.00
44140;BME280;29803;51.048;4.686;2023-11-22T08:39:19;103058.09;;;6.02;100.00
44140;BME280;29803;51.048;4.686;2023-11-22T08:41:50;103062.53;;;6.18;100.00
44140;BME280;29803;51.048;4.686;2023-11-22T08:44:20;103056.59;;;6.29;100.00
44140;BME280;29803;51.048;4.686;2023-11-22T08:46:51;103037.59;;;6.35;100.00
44140;BME280;29803;51.048;4.686;2023-11-22T08:49:21;103038.28;;;6.39;100.00
44140;BME280;29803;51.048;4.686;2023-11-22T08:51:52;103048.16;;;6.37;100.00
44140;BME280;29803;51.048;4.686;2023-11-22T08:54:22;103048.94;;;6.39;100.00
44140;BME280;29803;51.048;4.686;2023-11-22T08:56:53;103063.66;;;6.46;100.00
44140;BME280;29803;51.048;4.686;2023-11-22T08:59:26;103074.56;;;6.57;100.00
44140;BME280;29803;51.048;4.686;2023-11-22T09:01:56;103064.69;;;6.59;100.00
44140;BME280;29803;51.048;4.686;2023-11-22T09:04:28;103065.19;;;6.66;100.00
44140;BME280;29803;51.048;4.686;2023-11-22T09:06:59;103080.84;;;6.56;100.00
44140;BME280;29803;51.048;4.686;2023-11-22T09:09:31;103082.50;;;6.59;100.00
44140;BME280;29803;51.048;4.686;2023-11-22T09:12:01;103086.72;;;6.63;100.00
44140;BME280;29803;51.048;4.686;2023-11-22T09:14:32;103083.63;;;6.70;100.00
44140;BME280;29803;51.048;4.686;2023-11-22T09:17:03;103077.84;;;6.78;100.00
44140;BME280;29803;51.048;4.686;2023-11-22T09:19:35;103090.91;;;6.83;100.00
44140;BME280;29803;51.048;4.686;2023-11-22T09:22:06;103084.28;;;6.90;100.00
44140;BME280;29803;51.048;4.686;2023-11-22T09:24:37;103077.41;;;6.86;100.00
44140;BME280;29803;51.048;4.686;2023-11-22T09:27:08;103083.59;;;6.86;100.00
44140;BME280;29803;51.048;4.686;2023-11-22T09:29:41;103095.97;;;6.87;100.00
44140;BME280;29803;51.048;4.686;2023-11-22T09:32:11;103082.47;;;6.90;100.00
44140;BME280;29803;51.048;4.686;2023-11-22T09:34:43;103093.50;;;7.00;100.00
44140;BME280;29803;51.048;4.686;2023-11-22T09:37:21;103085.66;;;6.97;100.00
44140;BME280;29803;51.048;4.686;2023-11-22T09:39:51;103093.38;;;7.01;100.00
44140;BME280;29803;51.048;4.686;2023-11-22T09:42:22;103097.88;;;6.85;100.00
44140;BME280;29803;51.048;4.686;2023-11-22T09:44:52;103084.91;;;6.79;100.00
44140;BME280;29803;51.048;4.686;2023-11-22T09:47:23;103094.72;;;6.79;100.00
44140;BME280;29803;51.048;4.686;2023-11-22T09:49:56;103098.84;;;6.84;100.00
44140;BME280;29803;51.048;4.686;2023-11-22T09:52:28;103100.31;;;6.90;100.00
44140;BME280;29803;51.048;4.686;2023-11-22T09:55:02;103107.09;;;6.80;100.00
44140;BME280;29803;51.048;4.686;2023-11-22T09:57:34;103109.00;;;6.93;100.00
44140;BME280;29803;51.048;4.686;2023-11-22T10:00:08;103105.28;;;6.96;100.00
44140;BME280;29803;51.048;4.686;2023-11-22T10:02:44;103108.28;;;7.06;100.00
44140;BME280;29803;51.048;4.686;2023-11-22T10:05:15;103110.44;;;7.15;100.00
44140;BME280;29803;51.048;4.686;2023-11-22T10:07:46;103094.56;;;7.12;100.00
44140;BME280;29803;51.048;4.686;2023-11-22T10:10:19;103090.09;;;7.12;100.00
44140;BME280;29803;51.048;4.686;2023-11-22T10:12:55;103093.03;;;7.08;100.00
44140;BME280;29803;51.048;4.686;2023-11-22T10:15:28;103090.97;;;6.97;100.00
44140;BME280;29803;51.048;4.686;2023-11-22T10:17:59;103084.44;;;6.87;100.00
44140;BME280;29803;51.048;4.686;2023-11-22T10:23:10;103088.94;;;6.86;100.00
44140;BME280;29803;51.048;4.686;2023-11-22T10:25:48;103087.22;;;6.85;100.00
44140;BME280;29803;51.048;4.686;2023-11-22T10:28:20;103094.88;;;6.91;100.00
44140;BME280;29803;51.048;4.686;2023-11-22T10:30:51;103094.69;;;6.94;100.00
44140;BME280;29803;51.048;4.686;2023-11-22T10:33:22;103102.19;;;7.04;100.00
44140;BME280;29803;51.048;4.686;2023-11-22T10:35:53;103099.84;;;7.13;100.00
44140;BME280;29803;51.048;4.686;2023-11-22T10:38:24;103100.13;;;7.09;100.00
44140;BME280;29803;51.048;4.686;2023-11-22T10:40:56;103101.47;;;7.16;100.00
44140;BME280;29803;51.048;4.686;2023-11-22T10:43:30;103101.78;;;7.25;100.00
44140;BME280;29803;51.048;4.686;2023-11-22T10:46:03;103100.75;;;7.28;100.00
44140;BME280;29803;51.048;4.686;2023-11-22T10:48:35;103094.75;;;7.24;100.00
44140;BME280;29803;51.048;4.686;2023-11-22T10:51:06;103088.03;;;7.17;100.00
44140;BME280;29803;51.048;4.686;2023-11-22T10:53:45;103079.25;;;7.15;100.00
44140;BME280;29803;51.048;4.686;2023-11-22T10:56:19;103075.19;;;7.24;100.00
44140;BME280;29803;51.048;4.686;2023-11-22T10:58:51;103083.69;;;7.31;100.00
44140;BME280;29803;51.048;4.686;2023-11-22T11:01:25;103070.25;;;7.32;100.00
44140;BME280;29803;51.048;4.686;2023-11-22T11:04:03;103059.25;;;7.22;100.00
44140;BME280;29803;51.048;4.686;2023-11-22T11:06:37;103053.63;;;6.97;100.00
44140;BME280;29803;51.048;4.686;2023-11-22T11:09:08;103050.09;;;6.96;100.00
44140;BME280;29803;51.048;4.686;2023-11-22T11:11:40;103038.25;;;6.86;100.00
44140;BME280;29803;51.048;4.686;2023-11-22T11:14:11;103041.91;;;6.99;100.00
44140;BME280;29803;51.048;4.686;2023-11-22T11:16:42;103031.63;;;7.08;100.00
44140;BME280;29803;51.048;4.686;2023-11-22T11:19:18;103033.06;;;6.99;100.00
44140;BME280;29803;51.048;4.686;2023-11-22T11:21:49;103040.44;;;7.10;100.00
44140;BME280;29803;51.048;4.686;2023-11-22T11:24:19;103048.66;;;7.21;100.00
44140;BME280;29803;51.048;4.686;2023-11-22T11:26:50;103048.13;;;7.30;100.00
44140;BME280;29803;51.048;4.686;2023-11-22T11:29:30;103044.69;;;7.28;100.00
44140;BME280;29803;51.048;4.686;2023-11-22T11:32:03;103028.97;;;7.08;100.00
44140;BME280;29803;51.048;4.686;2023-11-22T11:34:46;103039.97;;;7.17;100.00
44140;BME280;29803;51.048;4.686;2023-11-22T11:37:19;103038.66;;;7.24;100.00
44140;BME280;29803;51.048;4.686;2023-11-22T11:39:50;103040.47;;;7.24;100.00
44140;BME280;29803;51.048;4.686;2023-11-22T11:42:21;103031.63;;;7.23;100.00
44140;BME280;29803;51.048;4.686;2023-11-22T11:47:30;103020.41;;;7.17;100.00
44140;BME280;29803;51.048;4.686;2023-11-22T11:50:00;103031.63;;;7.23;100.00
44140;BME280;29803;51.048;4.686;2023-11-22T11:52:31;103029.53;;;7.43;100.00
44140;BME280;29803;51.048;4.686;2023-11-22T11:55:03;103022.22;;;7.46;100.00
44140;BME280;29803;51.048;4.686;2023-11-22T11:57:34;103017.06;;;7.58;100.00
44140;BME280;29803;51.048;4.686;2023-11-22T12:00:06;103016.50;;;7.67;100.00
44140;BME280;29803;51.048;4.686;2023-11-22T12:02:37;103013.53;;;7.57;100.00
44140;BME280;29803;51.048;4.686;2023-11-22T12:05:07;102993.03;;;7.43;100.00
44140;BME280;29803;51.048;4.686;2023-11-22T12:07:38;102990.94;;;7.48;100.00
44140;BME280;29803;51.048;4.686;2023-11-22T12:10:09;102980.84;;;7.53;100.00
44140;BME280;29803;51.048;4.686;2023-11-22T12:12:43;102984.44;;;7.67;100.00
44140;BME280;29803;51.048;4.686;2023-11-22T12:15:14;102978.34;;;7.79;100.00
44140;BME280;29803;51.048;4.686;2023-11-22T12:17:48;102980.06;;;7.94;100.00
44140;BME280;29803;51.048;4.686;2023-11-22T12:20:21;102980.06;;;7.94;100.00
44140;BME280;29803;51.048;4.686;2023-11-22T12:22:52;102977.00;;;8.00;100.00
44140;BME280;29803;51.048;4.686;2023-11-22T12:25:26;102978.59;;;8.03;100.00
44140;BME280;29803;51.048;4.686;2023-11-22T12:27:57;102964.66;;;8.12;100.00
44140;BME280;29803;51.048;4.686;2023-11-22T12:30:29;102959.13;;;8.01;100.00
44140;BME280;29803;51.048;4.686;2023-11-22T12:33:02;102959.25;;;7.99;100.00
44140;BME280;29803;51.048;4.686;2023-11-22T12:35:34;102967.66;;;7.79;100.00
44140;BME280;29803;51.048;4.686;2023-11-22T12:38:05;102977.84;;;7.87;100.00
44140;BME280;29803;51.048;4.686;2023-11-22T12:40:37;102970.69;;;7.87;100.00
44140;BME280;29803;51.048;4.686;2023-11-22T12:43:08;102965.16;;;7.90;100.00
44140;BME280;29803;51.048;4.686;2023-11-22T12:45:38;102959.69;;;8.06;100.00
44140;BME280;29803;51.048;4.686;2023-11-22T12:48:22;102959.22;;;8.14;100.00
44140;BME280;29803;51.048;4.686;2023-11-22T12:50:54;102960.97;;;8.27;100.00
44140;BME280;29803;51.048;4.686;2023-11-22T12:53:25;102958.31;;;8.27;100.00
44140;BME280;29803;51.048;4.686;2023-11-22T12:55:58;102956.47;;;8.28;100.00
44140;BME280;29803;51.048;4.686;2023-11-22T12:58:28;102956.28;;;8.31;100.00
44140;BME280;29803;51.048;4.686;2023-11-22T13:00:59;102951.47;;;8.23;100.00
44140;BME280;29803;51.048;4.686;2023-11-22T13:03:30;102955.75;;;8.12;100.00
44140;BME280;29803;51.048;4.686;2023-11-22T13:06:02;102958.72;;;8.21;100.00
44140;BME280;29803;51.048;4.686;2023-11-22T13:08:33;102971.50;;;8.16;100.00
44140;BME280;29803;51.048;4.686;2023-11-22T13:11:05;102961.50;;;8.05;100.00
44140;BME280;29803;51.048;4.686;2023-11-22T13:13:37;102965.22;;;8.03;100.00
44140;BME280;29803;51.048;4.686;2023-11-22T13:16:09;102955.03;;;8.10;100.00